Time;durP1;ratioP1;P1;durP2;ratioP2;P2;SDS_P1;SDS_P2;PMS_P1;PMS_P2;Temp;Humidity;BMP_temperature;BMP_pressure;BME280_temperature;BME280_humidity;BME280_pressure;Samples;Min_cycle;Max_cycle;Signal;HPM_P1;HPM_P2
2023/07/02 00:01:54;;;;;;;;;;;;;;;25.09;68.85;98856.75;5089522;28;19912;-43
2023/07/02 00:04:20;;;;;;;;;;;;;;;25.06;69.10;98849.22;5090146;28;19920;-43
2023/07/02 00:06:48;;;;;;;;;;;;;;;24.98;69.60;98850.81;5090165;28;19916;-43
2023/07/02 00:09:14;;;;;;;;;;;;;;;24.93;69.83;98850.97;5090168;28;19963;-43
2023/07/02 00:11:40;;;;;;;;;;;;;;;24.94;69.47;98855.31;5088847;28;20400;-43
2023/07/02 00:14:06;;;;;;;;;;;;;;;24.97;69.25;98854.66;5088909;28;19912;-42
2023/07/02 00:16:31;;;;;;;;;;;;;;;24.95;69.80;98851.44;5089128;28;19998;-43
2023/07/02 00:18:57;;;;;;;;;;;;;;;24.97;69.82;98849.22;5089770;28;19912;-44
2023/07/02 00:21:22;;;;;;;;;;;;;;;25.03;69.69;98851.78;5091918;28;19916;-43
2023/07/02 00:23:48;;;;;;;;;;;;;;;25.10;69.42;98858.34;5094539;28;19912;-43
2023/07/02 00:26:13;;;;;;;;;;;;;;;24.94;69.97;98859.94;5094925;28;19912;-43
2023/07/02 00:28:39;;;;;;;;;;;;;;;24.16;72.19;98860.56;5094807;28;19916;-44
2023/07/02 00:31:04;;;;;;;;;;;;;;;24.21;72.35;98860.44;5094704;28;20299;-43
2023/07/02 00:33:31;;;;;;;;;;;;;;;24.27;72.42;98861.88;5094561;28;19924;-43
2023/07/02 00:35:56;;;;;;;;;;;;;;;24.39;71.91;98858.59;5094926;28;19956;-43
2023/07/02 00:38:22;;;;;;;;;;;;;;;24.36;71.73;98856.50;5094640;28;20454;-44
2023/07/02 00:40:47;;;;;;;;;;;;;;;24.56;71.28;98869.53;5094644;28;19912;-43
2023/07/02 00:43:13;;;;;;;;;;;;;;;24.62;71.09;98872.06;5094663;28;19912;-43
2023/07/02 00:45:41;;;;;;;;;;;;;;;24.74;70.71;98858.66;5094464;28;19916;-42
2023/07/02 00:48:06;;;;;;;;;;;;;;;24.71;70.52;98867.44;5094264;28;19912;-41
2023/07/02 00:50:32;;;;;;;;;;;;;;;24.80;70.11;98859.31;5093992;28;19918;-42
2023/07/02 00:52:57;;;;;;;;;;;;;;;24.80;70.44;98856.59;5094026;28;19912;-42
2023/07/02 00:55:22;;;;;;;;;;;;;;;24.80;70.27;98851.94;5094245;28;20025;-42
2023/07/02 00:57:48;;;;;;;;;;;;;;;24.87;69.37;98849.53;5094056;28;20004;-42
2023/07/02 01:00:13;;;;;;;;;;;;;;;24.98;68.40;98841.88;5094169;28;19912;-42
2023/07/02 01:02:43;;;;;;;;;;;;;;;25.01;67.61;98846.66;5094247;28;19958;-42
2023/07/02 01:05:09;;;;;;;;;;;;;;;25.10;67.11;98841.22;5093980;28;19923;-43
2023/07/02 01:07:34;;;;;;;;;;;;;;;24.94;66.40;98839.00;5094157;28;19912;-42
2023/07/02 01:09:59;;;;;;;;;;;;;;;25.04;66.00;98845.22;5094260;28;19912;-45
2023/07/02 01:12:25;;;;;;;;;;;;;;;25.03;66.56;98838.16;5093951;28;19912;-44
2023/07/02 01:14:52;;;;;;;;;;;;;;;25.09;66.26;98845.88;5093997;28;19950;-42
2023/07/02 01:17:19;;;;;;;;;;;;;;;24.96;66.10;98846.84;5094026;28;19919;-41
2023/07/02 01:19:51;;;;;;;;;;;;;;;25.05;65.53;98847.59;5093861;28;19922;-43
2023/07/02 01:22:17;;;;;;;;;;;;;;;24.86;65.09;98844.41;5094127;28;19912;-44
2023/07/02 01:24:42;;;;;;;;;;;;;;;24.72;63.59;98834.50;5094093;28;19965;-43
2023/07/02 01:27:07;;;;;;;;;;;;;;;24.76;63.48;98840.88;5093777;28;20294;-43
2023/07/02 01:29:36;;;;;;;;;;;;;;;24.68;63.82;98835.47;5093579;28;20355;-42
2023/07/02 01:32:02;;;;;;;;;;;;;;;24.81;63.43;98833.69;5093397;28;19966;-43
2023/07/02 01:34:27;;;;;;;;;;;;;;;24.02;66.19;98840.88;5092851;28;19924;-42
2023/07/02 01:36:52;;;;;;;;;;;;;;;23.41;69.57;98842.16;5093800;28;19974;-43
2023/07/02 01:39:17;;;;;;;;;;;;;;;23.08;71.29;98838.91;5093343;28;20072;-43
2023/07/02 01:41:54;;;;;;;;;;;;;;;22.97;71.83;98838.31;5093495;28;19923;-43
2023/07/02 01:44:20;;;;;;;;;;;;;;;22.99;72.03;98827.97;5093415;28;20398;-43
2023/07/02 01:46:48;;;;;;;;;;;;;;;22.88;71.93;98826.59;5093507;28;20002;-42
2023/07/02 01:49:22;;;;;;;;;;;;;;;22.91;72.08;98822.47;5093325;28;19961;-43
2023/07/02 01:51:51;;;;;;;;;;;;;;;22.76;72.60;98821.72;5093295;28;19980;-42
2023/07/02 01:54:17;;;;;;;;;;;;;;;23.18;70.14;98832.44;5093600;28;19912;-43
2023/07/02 01:56:43;;;;;;;;;;;;;;;23.15;70.25;98822.19;5093076;28;20057;-43
2023/07/02 01:59:08;;;;;;;;;;;;;;;23.05;70.45;98814.31;5093142;28;20010;-42
2023/07/02 02:01:34;;;;;;;;;;;;;;;23.09;70.37;98812.59;5093107;28;19920;-43
2023/07/02 02:03:59;;;;;;;;;;;;;;;23.10;70.12;98815.00;5093052;28;19919;-42
2023/07/02 02:06:24;;;;;;;;;;;;;;;22.76;71.83;98815.50;5093127;28;19931;-42
2023/07/02 02:08:50;;;;;;;;;;;;;;;22.59;73.47;98816.94;5093109;28;20418;-43
2023/07/02 02:11:15;;;;;;;;;;;;;;;22.65;72.45;98814.91;5092852;28;19912;-43
2023/07/02 02:13:40;;;;;;;;;;;;;;;22.69;71.77;98824.03;5093000;28;19920;-43
2023/07/02 02:16:06;;;;;;;;;;;;;;;22.74;71.16;98817.72;5092861;28;19920;-44
2023/07/02 02:18:31;;;;;;;;;;;;;;;22.51;72.19;98812.25;5092572;28;19939;-43
2023/07/02 02:20:56;;;;;;;;;;;;;;;22.58;72.50;98809.09;5092553;28;20030;-43
2023/07/02 02:23:21;;;;;;;;;;;;;;;22.55;72.63;98810.53;5092620;28;20356;-44
2023/07/02 02:25:47;;;;;;;;;;;;;;;22.43;72.38;98802.16;5092442;28;19918;-44
2023/07/02 02:28:12;;;;;;;;;;;;;;;22.37;74.00;98803.34;5092934;28;20011;-43
2023/07/02 02:30:37;;;;;;;;;;;;;;;22.27;74.27;98795.44;5092734;28;19917;-45
2023/07/02 02:33:03;;;;;;;;;;;;;;;22.06;76.91;98809.38;5092093;28;19925;-43
2023/07/02 02:35:28;;;;;;;;;;;;;;;22.15;76.54;98820.31;5092607;28;19912;-43
2023/07/02 02:37:53;;;;;;;;;;;;;;;22.16;76.36;98830.03;5092399;28;19920;-46
2023/07/02 02:40:19;;;;;;;;;;;;;;;22.36;75.83;98829.66;5092678;28;19912;-44
2023/07/02 02:42:44;;;;;;;;;;;;;;;22.51;74.28;98836.66;5092387;28;20460;-43
2023/07/02 02:45:09;;;;;;;;;;;;;;;22.57;73.27;98837.34;5091984;28;19916;-44
2023/07/02 02:47:35;;;;;;;;;;;;;;;22.57;73.53;98835.44;5092624;28;19912;-43
2023/07/02 02:50:00;;;;;;;;;;;;;;;22.56;72.94;98828.41;5092335;28;19916;-44
2023/07/02 02:52:25;;;;;;;;;;;;;;;22.78;72.34;98830.34;5092243;28;20309;-43
2023/07/02 02:54:52;;;;;;;;;;;;;;;22.67;73.00;98830.88;5092155;28;19939;-43
2023/07/02 02:57:18;;;;;;;;;;;;;;;22.88;72.23;98845.56;5092133;28;20326;-40
2023/07/02 02:59:43;;;;;;;;;;;;;;;22.82;71.84;98849.53;5092083;28;20426;-42
2023/07/02 03:02:08;;;;;;;;;;;;;;;22.75;71.75;98855.38;5092216;28;19912;-43
2023/07/02 03:04:34;;;;;;;;;;;;;;;22.83;71.16;98854.66;5091905;28;19999;-42
2023/07/02 03:06:59;;;;;;;;;;;;;;;22.85;72.04;98865.19;5092231;28;20356;-43
2023/07/02 03:09:25;;;;;;;;;;;;;;;22.89;71.82;98873.53;5091616;28;20273;-42
2023/07/02 03:11:50;;;;;;;;;;;;;;;23.83;68.25;98884.59;5091884;28;19954;-42
2023/07/02 03:14:15;;;;;;;;;;;;;;;23.58;67.22;98873.25;5091599;28;19916;-42
2023/07/02 03:16:42;;;;;;;;;;;;;;;23.47;67.46;98878.13;5091907;28;19920;-43
2023/07/02 03:19:07;;;;;;;;;;;;;;;23.96;65.53;98872.81;5091717;28;19913;-45
2023/07/02 03:21:32;;;;;;;;;;;;;;;24.02;65.68;98878.94;5091637;28;19912;-42
2023/07/02 03:23:58;;;;;;;;;;;;;;;24.05;64.59;98883.75;5091564;28;19912;-44
2023/07/02 03:26:23;;;;;;;;;;;;;;;23.49;66.17;98886.75;5091389;28;19935;-42
2023/07/02 03:28:49;;;;;;;;;;;;;;;23.08;67.79;98884.25;5091497;28;19916;-42
2023/07/02 03:31:14;;;;;;;;;;;;;;;23.10;68.23;98892.88;5091511;28;19916;-43
2023/07/02 03:33:40;;;;;;;;;;;;;;;23.07;68.60;98886.13;5091131;28;20291;-42
2023/07/02 03:36:06;;;;;;;;;;;;;;;23.14;67.86;98896.56;5091448;28;19970;-42
2023/07/02 03:38:32;;;;;;;;;;;;;;;23.43;67.43;98905.09;5091695;28;19969;-43
2023/07/02 03:40:57;;;;;;;;;;;;;;;23.12;67.87;98899.59;5091244;28;20284;-43
2023/07/02 03:43:22;;;;;;;;;;;;;;;23.56;66.84;98897.19;5091135;28;20372;-42
2023/07/02 03:45:47;;;;;;;;;;;;;;;23.66;66.22;98905.06;5090965;28;19917;-41
2023/07/02 03:48:13;;;;;;;;;;;;;;;23.61;66.31;98894.34;5091105;28;19948;-42
2023/07/02 03:50:38;;;;;;;;;;;;;;;23.16;68.45;98894.34;5091041;28;20437;-42
2023/07/02 03:53:03;;;;;;;;;;;;;;;23.22;68.07;98903.97;5091227;28;19912;-43
2023/07/02 03:55:29;;;;;;;;;;;;;;;22.84;68.75;98899.63;5090298;28;19962;-43
2023/07/02 03:57:54;;;;;;;;;;;;;;;22.76;69.96;98903.06;5091033;28;19924;-42
2023/07/02 04:00:19;;;;;;;;;;;;;;;22.50;70.41;98899.28;5090991;28;19935;-42
2023/07/02 04:02:44;;;;;;;;;;;;;;;22.17;71.94;98894.75;5090917;28;20396;-41
2023/07/02 04:05:10;;;;;;;;;;;;;;;22.77;69.73;98895.72;5090946;28;19916;-42
2023/07/02 04:07:36;;;;;;;;;;;;;;;23.08;68.61;98895.91;5091248;28;19912;-42
2023/07/02 04:10:01;;;;;;;;;;;;;;;23.25;68.30;98894.41;5091160;28;20319;-42
2023/07/02 04:12:27;;;;;;;;;;;;;;;23.72;66.66;98903.84;5090994;28;19995;-44
2023/07/02 04:14:53;;;;;;;;;;;;;;;23.72;65.66;98900.31;5090930;28;19913;-41
2023/07/02 04:17:18;;;;;;;;;;;;;;;23.43;66.45;98907.78;5091138;28;19912;-41
2023/07/02 04:19:44;;;;;;;;;;;;;;;23.73;66.32;98899.22;5091357;28;19912;-43
2023/07/02 04:22:09;;;;;;;;;;;;;;;23.90;64.41;98895.81;5090731;28;19977;-42
2023/07/02 04:24:34;;;;;;;;;;;;;;;24.12;64.64;98911.25;5090980;28;19916;-41
2023/07/02 04:26:59;;;;;;;;;;;;;;;24.23;64.42;98914.50;5090970;28;19912;-43
2023/07/02 04:29:25;;;;;;;;;;;;;;;24.01;64.15;98913.44;5091044;28;20003;-42
2023/07/02 04:31:50;;;;;;;;;;;;;;;23.48;66.05;98912.31;5090910;28;19923;-42
2023/07/02 04:34:15;;;;;;;;;;;;;;;23.98;64.48;98914.84;5090388;28;19947;-42
2023/07/02 04:36:41;;;;;;;;;;;;;;;24.07;64.13;98919.56;5090856;28;20022;-41
2023/07/02 04:39:07;;;;;;;;;;;;;;;24.66;62.96;98909.22;5091037;28;20075;-42
2023/07/02 04:41:33;;;;;;;;;;;;;;;24.71;62.08;98908.25;5090963;28;20456;-41
2023/07/02 04:43:58;;;;;;;;;;;;;;;24.87;61.37;98898.53;5090894;28;20038;-42
2023/07/02 04:46:24;;;;;;;;;;;;;;;25.26;60.25;98901.44;5090594;28;19912;-41
2023/07/02 04:48:49;;;;;;;;;;;;;;;25.16;60.60;98906.03;5090524;28;20023;-42
2023/07/02 04:51:14;;;;;;;;;;;;;;;25.72;59.10;98914.34;5090682;28;19959;-41
2023/07/02 04:53:39;;;;;;;;;;;;;;;26.17;57.61;98934.91;5090390;28;19916;-43
2023/07/02 04:56:05;;;;;;;;;;;;;;;25.79;57.63;98929.38;5090267;28;19942;-43
2023/07/02 04:58:30;;;;;;;;;;;;;;;25.56;58.47;98927.66;5090380;28;20304;-43
2023/07/02 05:00:55;;;;;;;;;;;;;;;25.66;58.79;98931.97;5090408;28;19942;-43
2023/07/02 05:03:20;;;;;;;;;;;;;;;26.23;57.08;98933.59;5090528;28;19995;-43
2023/07/02 05:05:46;;;;;;;;;;;;;;;26.53;56.16;98930.88;5090285;28;20398;-43
2023/07/02 05:08:11;;;;;;;;;;;;;;;27.09;55.36;98930.69;5093763;28;19916;-42
2023/07/02 05:10:36;;;;;;;;;;;;;;;26.59;55.49;98936.97;5094357;28;19935;-42
2023/07/02 05:13:02;;;;;;;;;;;;;;;26.87;53.90;98931.84;5094121;28;19941;-43
2023/07/02 05:15:27;;;;;;;;;;;;;;;26.34;56.69;98934.03;5094129;28;19918;-45
2023/07/02 05:17:52;;;;;;;;;;;;;;;26.65;57.06;98955.56;5093794;28;19968;-43
2023/07/02 05:20:18;;;;;;;;;;;;;;;26.74;58.15;98954.72;5093601;28;19918;-44
2023/07/02 05:22:43;;;;;;;;;;;;;;;26.29;58.64;98956.03;5093906;28;20045;-44
2023/07/02 05:25:08;;;;;;;;;;;;;;;26.32;59.18;98956.16;5093539;28;20330;-46
2023/07/02 05:27:34;;;;;;;;;;;;;;;25.67;60.91;98960.03;5091916;28;19961;-44
2023/07/02 05:29:59;;;;;;;;;;;;;;;25.13;62.51;98969.31;5093286;28;19913;-45
2023/07/02 05:32:24;;;;;;;;;;;;;;;25.25;63.27;98979.59;5093084;28;19916;-44
2023/07/02 05:34:50;;;;;;;;;;;;;;;25.53;63.15;98971.06;5093032;28;20379;-42
2023/07/02 05:37:15;;;;;;;;;;;;;;;25.91;62.20;98984.00;5093038;28;19939;-43
2023/07/02 05:39:40;;;;;;;;;;;;;;;26.02;63.04;98977.13;5093286;28;20363;-46
2023/07/02 05:42:06;;;;;;;;;;;;;;;25.72;64.34;98978.91;5092967;28;20006;-45
2023/07/02 05:44:31;;;;;;;;;;;;;;;25.71;63.81;98985.50;5093336;28;19920;-44
2023/07/02 05:46:56;;;;;;;;;;;;;;;25.26;64.77;98994.00;5092850;28;20384;-44
2023/07/02 05:49:21;;;;;;;;;;;;;;;25.21;64.83;98994.09;5093100;28;19923;-42
2023/07/02 05:51:47;;;;;;;;;;;;;;;25.19;63.53;98986.28;5093143;28;20007;-43
2023/07/02 05:54:12;;;;;;;;;;;;;;;25.08;62.57;98982.25;5093091;28;20365;-43
2023/07/02 05:56:37;;;;;;;;;;;;;;;24.33;63.33;98974.00;5092989;28;19919;-43
2023/07/02 05:59:03;;;;;;;;;;;;;;;24.33;63.76;98974.00;5092678;28;19994;-43
2023/07/02 06:01:28;;;;;;;;;;;;;;;23.88;65.32;98969.47;5091849;28;20316;-43
2023/07/02 06:03:53;;;;;;;;;;;;;;;23.62;67.04;98969.25;5092990;28;19912;-43
2023/07/02 06:06:19;;;;;;;;;;;;;;;23.67;68.31;98985.44;5091913;28;19990;-44
2023/07/02 06:08:44;;;;;;;;;;;;;;;23.76;67.26;98993.63;5092338;28;19912;-44
2023/07/02 06:11:10;;;;;;;;;;;;;;;23.87;67.08;98991.50;5092709;28;19912;-43
2023/07/02 06:13:35;;;;;;;;;;;;;;;23.67;66.60;98980.00;5092398;28;20445;-43
2023/07/02 06:16:01;;;;;;;;;;;;;;;23.76;67.31;98970.00;5092059;28;19915;-41
2023/07/02 06:18:26;;;;;;;;;;;;;;;23.89;66.97;98967.56;5091427;28;19942;-42
2023/07/02 06:20:51;;;;;;;;;;;;;;;24.03;67.34;98971.00;5092565;28;19912;-43
2023/07/02 06:23:17;;;;;;;;;;;;;;;24.51;67.10;98978.44;5092740;28;20251;-44
2023/07/02 06:25:42;;;;;;;;;;;;;;;25.51;63.15;98957.81;5093533;28;19916;-44
2023/07/02 06:28:07;;;;;;;;;;;;;;;26.21;60.75;98967.78;5112174;28;19912;-43
2023/07/02 06:30:32;;;;;;;;;;;;;;;26.32;58.22;98969.00;5112498;28;19998;-44
2023/07/02 06:32:58;;;;;;;;;;;;;;;27.00;57.43;98952.63;5091407;28;19924;-45
2023/07/02 06:35:23;;;;;;;;;;;;;;;27.34;56.28;98953.53;5091397;28;19912;-44
2023/07/02 06:37:48;;;;;;;;;;;;;;;27.49;55.45;98952.09;5092011;28;20311;-44
2023/07/02 06:40:14;;;;;;;;;;;;;;;27.57;54.83;98962.16;5091798;28;19981;-44
2023/07/02 06:42:39;;;;;;;;;;;;;;;27.49;54.60;98952.09;5091304;28;19937;-43
2023/07/02 06:45:05;;;;;;;;;;;;;;;27.64;53.26;98959.66;5091513;28;19916;-44
2023/07/02 06:47:30;;;;;;;;;;;;;;;27.63;53.49;98955.34;5091733;28;19939;-44
2023/07/02 06:49:56;;;;;;;;;;;;;;;27.46;53.93;98952.78;5091330;28;19912;-43
2023/07/02 06:52:21;;;;;;;;;;;;;;;27.96;52.63;98959.22;5091698;28;19923;-44
2023/07/02 06:54:47;;;;;;;;;;;;;;;27.84;52.52;98949.03;5091713;28;19952;-42
2023/07/02 06:57:12;;;;;;;;;;;;;;;28.46;51.43;98953.47;5091572;28;20409;-43
2023/07/02 06:59:38;;;;;;;;;;;;;;;28.80;51.06;98948.66;5091661;28;19919;-43
2023/07/02 07:02:03;;;;;;;;;;;;;;;29.06;50.53;98950.22;5091370;28;20425;-42
2023/07/02 07:04:29;;;;;;;;;;;;;;;29.53;49.52;98949.66;5091505;28;19916;-43
2023/07/02 07:06:55;;;;;;;;;;;;;;;29.31;48.62;98950.97;5091374;28;19916;-43
2023/07/02 07:09:20;;;;;;;;;;;;;;;29.42;49.47;98954.03;5091383;28;19934;-44
2023/07/02 07:11:46;;;;;;;;;;;;;;;30.09;48.35;98946.03;5090970;28;19913;-43
2023/07/02 07:14:11;;;;;;;;;;;;;;;30.22;47.64;98949.50;5091598;28;19916;-44
2023/07/02 07:16:36;;;;;;;;;;;;;;;30.17;47.61;98953.28;5091422;28;19923;-44
2023/07/02 07:19:01;;;;;;;;;;;;;;;29.46;48.02;98949.44;5091234;28;19916;-44
2023/07/02 07:21:27;;;;;;;;;;;;;;;29.40;48.33;98953.59;5090872;28;20399;-44
2023/07/02 07:23:52;;;;;;;;;;;;;;;29.92;48.06;98949.91;5090804;28;20295;-43
2023/07/02 07:26:17;;;;;;;;;;;;;;;30.12;47.79;98950.84;5098262;28;20034;-44
2023/07/02 07:28:43;;;;;;;;;;;;;;;30.66;46.62;98951.34;5111761;28;19912;-42
2023/07/02 07:31:08;;;;;;;;;;;;;;;30.73;45.42;98944.06;5110932;28;20376;-43
2023/07/02 07:33:33;;;;;;;;;;;;;;;29.80;46.71;98945.31;5099529;28;19924;-43
2023/07/02 07:35:59;;;;;;;;;;;;;;;30.17;46.95;98945.06;5091097;28;19992;-42
2023/07/02 07:38:25;;;;;;;;;;;;;;;30.98;45.23;98946.59;5091179;28;19935;-43
2023/07/02 07:40:50;;;;;;;;;;;;;;;31.22;44.92;98947.47;5091496;28;20066;-43
2023/07/02 07:43:15;;;;;;;;;;;;;;;31.79;43.74;98942.31;5090702;28;20355;-43
2023/07/02 07:45:41;;;;;;;;;;;;;;;32.43;42.86;98942.66;5090694;28;19927;-43
2023/07/02 07:48:06;;;;;;;;;;;;;;;32.14;42.50;98939.44;5090790;28;19962;-43
2023/07/02 07:50:31;;;;;;;;;;;;;;;32.44;41.76;98931.25;5090931;28;19916;-42
2023/07/02 07:52:57;;;;;;;;;;;;;;;32.31;40.43;98922.41;5090582;28;19912;-42
2023/07/02 07:55:23;;;;;;;;;;;;;;;31.74;40.82;98924.19;5090393;28;19955;-43
2023/07/02 07:57:48;;;;;;;;;;;;;;;31.76;41.39;98919.91;5090476;28;19951;-44
2023/07/02 08:00:14;;;;;;;;;;;;;;;31.90;41.07;98915.81;5090451;28;19961;-44
2023/07/02 08:02:39;;;;;;;;;;;;;;;32.25;40.75;98921.16;5090470;28;19912;-43
2023/07/02 08:05:05;;;;;;;;;;;;;;;31.85;40.58;98916.09;5090627;28;20027;-44
2023/07/02 08:07:33;;;;;;;;;;;;;;;32.24;39.56;98914.03;5090732;28;20018;-43
2023/07/02 08:09:58;;;;;;;;;;;;;;;32.50;39.22;98918.78;5090808;28;19923;-43
2023/07/02 08:12:23;;;;;;;;;;;;;;;32.18;38.89;98907.28;5090676;28;19912;-41
2023/07/02 08:14:49;;;;;;;;;;;;;;;31.31;40.77;98907.63;5089128;28;19916;-42
2023/07/02 08:17:14;;;;;;;;;;;;;;;32.58;39.42;98921.63;5090465;28;19912;-44
2023/07/02 08:19:40;;;;;;;;;;;;;;;33.09;38.98;98930.22;5090593;28;20308;-41
2023/07/02 08:22:05;;;;;;;;;;;;;;;33.62;37.44;98918.22;5090046;28;20411;-44
2023/07/02 08:24:33;;;;;;;;;;;;;;;34.28;36.01;98915.72;5089806;28;20440;-44
2023/07/02 08:26:59;;;;;;;;;;;;;;;34.17;35.73;98911.31;5091973;28;20508;-45
2023/07/02 08:29:24;;;;;;;;;;;;;;;33.60;37.75;98919.78;5089804;28;20372;-43
2023/07/02 08:31:49;;;;;;;;;;;;;;;34.10;37.34;98917.53;5089664;28;19965;-45
2023/07/02 08:34:15;;;;;;;;;;;;;;;34.53;37.20;98914.31;5095277;28;19931;-44
2023/07/02 08:36:40;;;;;;;;;;;;;;;35.08;36.22;98908.72;5098001;28;20431;-43
2023/07/02 08:39:05;;;;;;;;;;;;;;;35.43;34.93;98913.59;5095369;28;19969;-44
2023/07/02 08:41:41;;;;;;;;;;;;;;;35.81;34.36;98911.34;5094846;28;20036;-42
2023/07/02 08:44:06;;;;;;;;;;;;;;;36.10;33.26;98905.81;5095118;28;20086;-43
2023/07/02 08:46:31;;;;;;;;;;;;;;;35.85;32.98;98908.53;5092509;28;19999;-44
2023/07/02 08:48:56;;;;;;;;;;;;;;;34.86;34.85;98905.06;5094049;28;19989;-42
2023/07/02 08:51:22;;;;;;;;;;;;;;;33.93;36.90;98913.44;5093887;28;19934;-42
2023/07/02 08:53:47;;;;;;;;;;;;;;;33.31;37.56;98911.22;5093401;28;20338;-44
2023/07/02 08:56:13;;;;;;;;;;;;;;;33.07;37.33;98906.97;5085707;28;20347;-44
2023/07/02 08:58:38;;;;;;;;;;;;;;;32.93;37.41;98911.13;5073313;28;19920;-43
2023/07/02 09:01:08;;;;;;;;;;;;;;;33.03;38.50;98906.91;5073142;28;19912;-41
2023/07/02 09:03:33;;;;;;;;;;;;;;;32.89;38.81;98917.75;5073645;28;19939;-43
2023/07/02 09:05:59;;;;;;;;;;;;;;;32.91;38.87;98918.19;5073184;28;20543;-42
2023/07/02 09:08:25;;;;;;;;;;;;;;;32.85;38.78;98923.22;5086956;28;19962;-42
2023/07/02 09:10:50;;;;;;;;;;;;;;;32.54;39.73;98911.34;5092663;28;19963;-43
2023/07/02 09:13:16;;;;;;;;;;;;;;;32.72;39.79;98921.84;5093681;28;20057;-43
2023/07/02 09:15:41;;;;;;;;;;;;;;;32.14;39.99;98911.94;5094009;28;20432;-43
2023/07/02 09:18:20;;;;;;;;;;;;;;;32.90;39.21;98919.34;5093873;28;19916;-43
2023/07/02 09:20:46;;;;;;;;;;;;;;;33.37;39.63;98906.16;5093597;28;19912;-44
2023/07/02 09:23:11;;;;;;;;;;;;;;;34.56;36.41;98889.50;5093552;28;19919;-42
2023/07/02 09:25:37;;;;;;;;;;;;;;;35.34;34.33;98891.06;5094634;28;19916;-43
2023/07/02 09:28:13;;;;;;;;;;;;;;;35.82;33.96;98896.28;5113216;28;20299;-43
2023/07/02 09:30:48;;;;;;;;;;;;;;;36.29;33.64;98893.56;5113321;28;19911;-42
2023/07/02 09:33:15;;;;;;;;;;;;;;;35.47;34.87;98891.50;5104669;28;19924;-42
2023/07/02 09:35:40;;;;;;;;;;;;;;;36.28;33.08;98902.25;5093161;28;19939;-44
2023/07/02 09:38:06;;;;;;;;;;;;;;;36.70;32.12;98878.44;5092765;28;20069;-43
2023/07/02 09:40:31;;;;;;;;;;;;;;;36.92;32.12;98888.25;5092434;28;19912;-45
2023/07/02 09:42:57;;;;;;;;;;;;;;;36.79;30.81;98885.13;5092816;28;19919;-44
2023/07/02 09:45:23;;;;;;;;;;;;;;;37.21;31.28;98892.94;5092917;28;19973;-43
2023/07/02 09:47:49;;;;;;;;;;;;;;;36.64;32.81;98893.88;5093275;28;19999;-43
2023/07/02 09:50:16;;;;;;;;;;;;;;;36.82;31.52;98896.59;5093098;28;20001;-44
2023/07/02 09:52:41;;;;;;;;;;;;;;;36.16;31.78;98893.13;5092436;28;19916;-45
2023/07/02 09:55:07;;;;;;;;;;;;;;;35.29;32.02;98898.94;5092124;28;19919;-44
2023/07/02 09:57:33;;;;;;;;;;;;;;;35.50;32.80;98900.97;5093014;28;19958;-44
2023/07/02 09:59:59;;;;;;;;;;;;;;;35.74;32.61;98899.47;5092713;28;19920;-43
2023/07/02 10:02:25;;;;;;;;;;;;;;;35.90;32.05;98891.56;5092513;28;19950;-43
2023/07/02 10:04:54;;;;;;;;;;;;;;;35.72;33.00;98897.09;5092596;28;20333;-43
2023/07/02 10:07:27;;;;;;;;;;;;;;;36.23;31.68;98900.66;5092643;28;19923;-43
2023/07/02 10:09:52;;;;;;;;;;;;;;;36.70;30.87;98895.84;5092380;28;19985;-42
2023/07/02 10:12:20;;;;;;;;;;;;;;;37.02;30.47;98885.84;5092065;28;19912;-43
2023/07/02 10:14:46;;;;;;;;;;;;;;;37.13;30.17;98884.63;5092307;28;19912;-44
2023/07/02 10:17:22;;;;;;;;;;;;;;;37.17;30.33;98888.16;5092431;28;20004;-44
2023/07/02 10:19:52;;;;;;;;;;;;;;;37.01;30.95;98898.91;5091853;28;20002;-44
2023/07/02 10:22:17;;;;;;;;;;;;;;;36.87;30.75;98899.75;5092053;28;20253;-42
2023/07/02 10:24:52;;;;;;;;;;;;;;;36.81;31.18;98904.13;5092007;28;19923;-43
2023/07/02 10:27:17;;;;;;;;;;;;;;;36.06;33.07;98899.44;5107836;28;19982;-44
2023/07/02 10:29:49;;;;;;;;;;;;;;;36.18;32.44;98901.88;5112272;28;19916;-43
2023/07/02 10:32:25;;;;;;;;;;;;;;;36.20;32.56;98905.03;5112203;28;19922;-43
2023/07/02 10:34:50;;;;;;;;;;;;;;;35.81;32.72;98903.03;5091595;28;19924;-43
2023/07/02 10:37:16;;;;;;;;;;;;;;;35.49;33.67;98904.91;5091983;28;19912;-43
2023/07/02 10:39:41;;;;;;;;;;;;;;;35.05;34.30;98895.66;5091920;28;19919;-45
2023/07/02 10:42:07;;;;;;;;;;;;;;;34.54;35.68;98882.75;5091843;28;19912;-43
2023/07/02 10:44:33;;;;;;;;;;;;;;;34.65;35.44;98878.88;5091332;28;19963;-45
2023/07/02 10:46:58;;;;;;;;;;;;;;;34.56;36.04;98894.22;5088694;28;19921;-43
2023/07/02 10:49:30;;;;;;;;;;;;;;;34.62;36.78;98892.69;5090600;28;20009;-44
2023/07/02 10:52:03;;;;;;;;;;;;;;;34.51;37.20;98887.09;5091739;28;19919;-42
2023/07/02 10:54:42;;;;;;;;;;;;;;;34.44;37.28;98893.38;5091804;28;19916;-44
2023/07/02 10:57:08;;;;;;;;;;;;;;;34.31;38.33;98911.41;5091791;28;19916;-45
2023/07/02 10:59:33;;;;;;;;;;;;;;;34.13;39.14;98914.00;5091867;28;20296;-45
2023/07/02 11:02:02;;;;;;;;;;;;;;;32.85;41.65;98928.72;5091881;28;19919;-45
2023/07/02 11:04:27;;;;;;;;;;;;;;;30.99;47.14;98926.22;5091001;28;20006;-48
2023/07/02 11:06:52;;;;;;;;;;;;;;;29.96;50.39;98925.34;5089935;28;20008;-47
2023/07/02 11:09:20;;;;;;;;;;;;;;;30.12;51.39;98909.69;5090914;28;19912;-44
2023/07/02 11:11:49;;;;;;;;;;;;;;;29.31;54.96;98895.41;5091231;28;19939;-44
2023/07/02 11:14:15;;;;;;;;;;;;;;;29.68;53.46;98876.00;5091054;28;19912;-47
2023/07/02 11:16:40;;;;;;;;;;;;;;;29.79;52.21;98886.13;5090728;28;19985;-46
2023/07/02 11:19:09;;;;;;;;;;;;;;;30.02;53.03;98900.06;5090840;28;19912;-46
2023/07/02 11:21:35;;;;;;;;;;;;;;;29.98;55.89;98904.63;5090718;28;19912;-43
2023/07/02 11:24:08;;;;;;;;;;;;;;;28.59;58.98;98906.97;5090760;28;20008;-44
2023/07/02 11:26:37;;;;;;;;;;;;;;;27.97;60.26;98898.75;5100175;28;19915;-47
2023/07/02 11:29:02;;;;;;;;;;;;;;;27.69;58.18;98895.81;5111603;28;19996;-41
2023/07/02 11:31:27;;;;;;;;;;;;;;;27.55;57.65;98901.59;5110954;28;19912;-40
2023/07/02 11:33:53;;;;;;;;;;;;;;;27.55;58.24;98890.66;5097215;28;20260;-43
2023/07/02 11:36:23;;;;;;;;;;;;;;;27.36;59.40;98884.88;5090233;28;19935;-42
2023/07/02 11:38:49;;;;;;;;;;;;;;;27.13;65.09;98882.50;5090819;28;19912;-43
2023/07/02 11:41:15;;;;;;;;;;;;;;;27.18;64.11;98878.75;5091088;28;19976;-43
2023/07/02 11:43:40;;;;;;;;;;;;;;;27.03;65.21;98880.97;5090831;28;19916;-42
2023/07/02 11:46:05;;;;;;;;;;;;;;;26.97;65.79;98882.31;5090605;28;19920;-43
2023/07/02 11:48:30;;;;;;;;;;;;;;;26.94;65.44;98880.25;5090803;28;19919;-43
2023/07/02 11:50:56;;;;;;;;;;;;;;;26.97;68.14;98885.03;5090554;28;20354;-44
2023/07/02 11:53:21;;;;;;;;;;;;;;;27.03;67.77;98899.28;5090721;28;19912;-45
2023/07/02 11:55:46;;;;;;;;;;;;;;;27.04;68.91;98900.91;5090288;28;19934;-44
2023/07/02 11:58:12;;;;;;;;;;;;;;;26.93;67.98;98892.28;5090169;28;19954;-42
2023/07/02 12:00:37;;;;;;;;;;;;;;;27.03;67.17;98899.28;5090107;28;19998;-42
2023/07/02 12:03:02;;;;;;;;;;;;;;;27.23;66.04;98890.28;5090127;28;19916;-44
2023/07/02 12:05:27;;;;;;;;;;;;;;;27.33;63.09;98880.91;5090146;28;20012;-44
2023/07/02 12:07:53;;;;;;;;;;;;;;;27.35;62.70;98878.63;5090223;28;20003;-45
2023/07/02 12:10:18;;;;;;;;;;;;;;;27.41;64.66;98876.50;5090668;28;20306;-45
2023/07/02 12:12:44;;;;;;;;;;;;;;;27.65;63.64;98876.56;5090429;28;20002;-43
2023/07/02 12:15:09;;;;;;;;;;;;;;;27.19;63.12;98870.25;5090777;28;19934;-43
2023/07/02 12:17:34;;;;;;;;;;;;;;;27.09;64.96;98846.88;5092710;28;19920;-42
2023/07/02 12:20:00;;;;;;;;;;;;;;;27.20;59.33;98865.56;5094925;28;19912;-43
2023/07/02 12:22:25;;;;;;;;;;;;;;;26.98;60.34;98851.16;5094693;28;19951;-43
2023/07/02 12:24:53;;;;;;;;;;;;;;;26.88;58.47;98846.91;5094639;28;19972;-42
2023/07/02 12:27:18;;;;;;;;;;;;;;;27.41;62.03;98844.50;5111020;28;19912;-42
2023/07/02 12:29:44;;;;;;;;;;;;;;;27.90;59.24;98849.28;5115345;28;19919;-42
2023/07/02 12:32:09;;;;;;;;;;;;;;;27.76;58.17;98848.78;5115118;28;20358;-42
2023/07/02 12:34:34;;;;;;;;;;;;;;;27.19;55.79;98845.66;5095148;28;19931;-42
2023/07/02 12:36:59;;;;;;;;;;;;;;;27.14;59.78;98834.16;5094526;28;19912;-42
2023/07/02 12:39:25;;;;;;;;;;;;;;;27.14;62.08;98839.63;5094554;28;20291;-44
2023/07/02 12:41:50;;;;;;;;;;;;;;;27.58;63.00;98842.72;5094104;28;19945;-43